sensor_id;sensor_type;location;lat;lon;timestamp;temperature;humidity
67249;SHT31;54162;54.300;18.592;2022-08-26T00:01:25;21.22;97.78
67249;SHT31;54162;54.300;18.592;2022-08-26T00:03:50;21.15;97.98
67249;SHT31;54162;54.300;18.592;2022-08-26T00:06:17;21.25;97.68
67249;SHT31;54162;54.300;18.592;2022-08-26T00:08:43;21.22;97.89
67249;SHT31;54162;54.300;18.592;2022-08-26T00:11:09;21.18;98.05
67249;SHT31;54162;54.300;18.592;2022-08-26T00:13:35;21.17;98.23
67249;SHT31;54162;54.300;18.592;2022-08-26T00:16:02;21.21;98.06
67249;SHT31;54162;54.300;18.592;2022-08-26T00:18:29;21.21;98.09
67249;SHT31;54162;54.300;18.592;2022-08-26T00:20:54;21.19;98.17
67249;SHT31;54162;54.300;18.592;2022-08-26T00:23:20;21.28;97.93
67249;SHT31;54162;54.300;18.592;2022-08-26T00:25:46;21.34;97.59
67249;SHT31;54162;54.300;18.592;2022-08-26T00:28:12;21.38;97.47
67249;SHT31;54162;54.300;18.592;2022-08-26T00:30:38;21.38;97.54
67249;SHT31;54162;54.300;18.592;2022-08-26T00:33:04;21.37;97.54
67249;SHT31;54162;54.300;18.592;2022-08-26T00:35:30;21.43;97.33
67249;SHT31;54162;54.300;18.592;2022-08-26T00:37:57;21.39;97.59
67249;SHT31;54162;54.300;18.592;2022-08-26T00:40:28;21.31;97.87
67249;SHT31;54162;54.300;18.592;2022-08-26T00:42:54;21.32;97.99
67249;SHT31;54162;54.300;18.592;2022-08-26T00:45:20;21.38;97.86
67249;SHT31;54162;54.300;18.592;2022-08-26T00:47:49;21.34;97.80
67249;SHT31;54162;54.300;18.592;2022-08-26T00:50:20;21.39;97.77
67249;SHT31;54162;54.300;18.592;2022-08-26T00:52:47;21.41;97.77
67249;SHT31;54162;54.300;18.592;2022-08-26T00:55:17;21.38;97.85
67249;SHT31;54162;54.300;18.592;2022-08-26T00:57:44;21.37;97.79
67249;SHT31;54162;54.300;18.592;2022-08-26T01:00:17;21.48;97.48
67249;SHT31;54162;54.300;18.592;2022-08-26T01:02:45;21.43;97.61
67249;SHT31;54162;54.300;18.592;2022-08-26T01:05:12;21.43;97.63
67249;SHT31;54162;54.300;18.592;2022-08-26T01:07:37;21.46;97.66
67249;SHT31;54162;54.300;18.592;2022-08-26T01:10:07;21.50;97.34
67249;SHT31;54162;54.300;18.592;2022-08-26T01:12:38;21.56;97.19
67249;SHT31;54162;54.300;18.592;2022-08-26T01:15:06;21.52;97.50
67249;SHT31;54162;54.300;18.592;2022-08-26T01:17:32;21.49;97.47
67249;SHT31;54162;54.300;18.592;2022-08-26T01:20:03;21.50;97.46
67249;SHT31;54162;54.300;18.592;2022-08-26T01:25:07;21.46;97.50
67249;SHT31;54162;54.300;18.592;2022-08-26T01:27:33;21.43;97.62
67249;SHT31;54162;54.300;18.592;2022-08-26T01:30:00;21.41;97.73
67249;SHT31;54162;54.300;18.592;2022-08-26T01:32:26;21.45;97.57
67249;SHT31;54162;54.300;18.592;2022-08-26T01:34:52;21.37;97.94
67249;SHT31;54162;54.300;18.592;2022-08-26T01:37:23;21.39;97.75
67249;SHT31;54162;54.300;18.592;2022-08-26T01:39:54;21.35;97.96
67249;SHT31;54162;54.300;18.592;2022-08-26T01:42:22;21.39;97.95
67249;SHT31;54162;54.300;18.592;2022-08-26T01:44:52;21.35;98.17
67249;SHT31;54162;54.300;18.592;2022-08-26T01:47:22;21.34;98.16
67249;SHT31;54162;54.300;18.592;2022-08-26T01:49:50;21.32;98.15
67249;SHT31;54162;54.300;18.592;2022-08-26T01:52:21;21.25;98.64
67249;SHT31;54162;54.300;18.592;2022-08-26T01:54:48;21.29;98.33
67249;SHT31;54162;54.300;18.592;2022-08-26T01:57:15;21.34;98.24
67249;SHT31;54162;54.300;18.592;2022-08-26T01:59:41;21.37;97.86
67249;SHT31;54162;54.300;18.592;2022-08-26T02:02:07;21.37;98.10
67249;SHT31;54162;54.300;18.592;2022-08-26T02:04:38;21.38;98.18
67249;SHT31;54162;54.300;18.592;2022-08-26T02:07:07;21.39;98.11
67249;SHT31;54162;54.300;18.592;2022-08-26T02:09:36;21.42;97.93
67249;SHT31;54162;54.300;18.592;2022-08-26T02:12:03;21.42;98.02
67249;SHT31;54162;54.300;18.592;2022-08-26T02:14:41;21.43;97.94
67249;SHT31;54162;54.300;18.592;2022-08-26T02:17:09;21.43;97.86
67249;SHT31;54162;54.300;18.592;2022-08-26T02:19:38;21.35;98.05
67249;SHT31;54162;54.300;18.592;2022-08-26T02:22:09;21.38;98.05
67249;SHT31;54162;54.300;18.592;2022-08-26T02:24:59;21.41;97.97
67249;SHT31;54162;54.300;18.592;2022-08-26T02:27:30;21.35;98.02
67249;SHT31;54162;54.300;18.592;2022-08-26T02:30:12;21.41;97.80
67249;SHT31;54162;54.300;18.592;2022-08-26T02:32:39;21.42;97.87
67249;SHT31;54162;54.300;18.592;2022-08-26T02:35:07;21.46;97.77
67249;SHT31;54162;54.300;18.592;2022-08-26T02:37:33;21.48;97.63
67249;SHT31;54162;54.300;18.592;2022-08-26T02:39:59;21.43;97.80
67249;SHT31;54162;54.300;18.592;2022-08-26T02:42:24;21.50;97.78
67249;SHT31;54162;54.300;18.592;2022-08-26T02:44:50;21.50;97.55
67249;SHT31;54162;54.300;18.592;2022-08-26T02:47:16;21.43;97.74
67249;SHT31;54162;54.300;18.592;2022-08-26T02:49:42;21.49;97.79
67249;SHT31;54162;54.300;18.592;2022-08-26T02:52:09;21.46;97.94
67249;SHT31;54162;54.300;18.592;2022-08-26T02:54:34;21.41;98.28
67249;SHT31;54162;54.300;18.592;2022-08-26T02:57:00;21.48;98.04
67249;SHT31;54162;54.300;18.592;2022-08-26T02:59:25;21.41;98.14
67249;SHT31;54162;54.300;18.592;2022-08-26T03:01:51;21.39;98.22
67249;SHT31;54162;54.300;18.592;2022-08-26T03:04:17;21.41;98.48
67249;SHT31;54162;54.300;18.592;2022-08-26T03:06:43;21.45;98.27
67249;SHT31;54162;54.300;18.592;2022-08-26T03:09:09;21.38;98.27
67249;SHT31;54162;54.300;18.592;2022-08-26T03:11:35;21.45;98.21
67249;SHT31;54162;54.300;18.592;2022-08-26T03:14:01;21.52;98.00
67249;SHT31;54162;54.300;18.592;2022-08-26T03:16:26;21.48;98.10
67249;SHT31;54162;54.300;18.592;2022-08-26T03:18:52;21.48;98.15
67249;SHT31;54162;54.300;18.592;2022-08-26T03:21:18;21.43;98.50
67249;SHT31;54162;54.300;18.592;2022-08-26T03:23:44;21.45;98.46
67249;SHT31;54162;54.300;18.592;2022-08-26T03:26:11;21.45;98.60
67249;SHT31;54162;54.300;18.592;2022-08-26T03:28:37;21.50;98.22
67249;SHT31;54162;54.300;18.592;2022-08-26T03:31:27;21.52;98.16
67249;SHT31;54162;54.300;18.592;2022-08-26T03:33:53;21.49;98.26
67249;SHT31;54162;54.300;18.592;2022-08-26T03:36:19;21.46;98.55
67249;SHT31;54162;54.300;18.592;2022-08-26T03:38:44;21.48;98.47
67249;SHT31;54162;54.300;18.592;2022-08-26T03:41:10;21.48;98.58
67249;SHT31;54162;54.300;18.592;2022-08-26T03:43:37;21.48;98.49
67249;SHT31;54162;54.300;18.592;2022-08-26T03:46:10;21.52;98.44
67249;SHT31;54162;54.300;18.592;2022-08-26T03:48:37;21.53;98.41
67249;SHT31;54162;54.300;18.592;2022-08-26T03:51:11;21.49;98.62
67249;SHT31;54162;54.300;18.592;2022-08-26T03:53:37;21.42;99.04
67249;SHT31;54162;54.300;18.592;2022-08-26T03:56:03;21.37;99.26
67249;SHT31;54162;54.300;18.592;2022-08-26T03:58:28;21.45;99.05
67249;SHT31;54162;54.300;18.592;2022-08-26T04:00:56;21.49;98.99
67249;SHT31;54162;54.300;18.592;2022-08-26T04:03:23;21.50;98.84
67249;SHT31;54162;54.300;18.592;2022-08-26T04:06:07;21.48;99.20
67249;SHT31;54162;54.300;18.592;2022-08-26T04:08:33;21.55;99.02
67249;SHT31;54162;54.300;18.592;2022-08-26T04:10:59;21.56;98.75
67249;SHT31;54162;54.300;18.592;2022-08-26T04:13:26;21.60;98.53
67249;SHT31;54162;54.300;18.592;2022-08-26T04:15:52;21.62;98.66
67249;SHT31;54162;54.300;18.592;2022-08-26T04:18:17;21.55;99.06
67249;SHT31;54162;54.300;18.592;2022-08-26T04:20:43;21.60;98.86
67249;SHT31;54162;54.300;18.592;2022-08-26T04:23:08;21.60;98.92
67249;SHT31;54162;54.300;18.592;2022-08-26T04:25:34;21.56;99.03
67249;SHT31;54162;54.300;18.592;2022-08-26T04:27:59;21.56;99.27
67249;SHT31;54162;54.300;18.592;2022-08-26T04:30:25;21.67;99.06
67249;SHT31;54162;54.300;18.592;2022-08-26T04:32:50;21.66;99.00
67249;SHT31;54162;54.300;18.592;2022-08-26T04:35:16;21.70;98.62
67249;SHT31;54162;54.300;18.592;2022-08-26T04:37:41;21.72;98.70
67249;SHT31;54162;54.300;18.592;2022-08-26T04:40:08;21.83;98.44
67249;SHT31;54162;54.300;18.592;2022-08-26T04:42:34;21.82;98.61
67249;SHT31;54162;54.300;18.592;2022-08-26T04:45:01;21.86;98.53
67249;SHT31;54162;54.300;18.592;2022-08-26T04:47:27;21.89;98.59
67249;SHT31;54162;54.300;18.592;2022-08-26T04:49:55;21.98;98.11
67249;SHT31;54162;54.300;18.592;2022-08-26T04:52:20;22.08;97.84
67249;SHT31;54162;54.300;18.592;2022-08-26T04:54:46;22.07;97.91
67249;SHT31;54162;54.300;18.592;2022-08-26T04:57:11;22.03;97.89
67249;SHT31;54162;54.300;18.592;2022-08-26T04:59:37;22.13;97.72
67249;SHT31;54162;54.300;18.592;2022-08-26T05:02:03;22.08;97.77
67249;SHT31;54162;54.300;18.592;2022-08-26T05:04:29;21.92;98.45
67249;SHT31;54162;54.300;18.592;2022-08-26T05:06:54;21.86;98.94
67249;SHT31;54162;54.300;18.592;2022-08-26T05:09:20;21.93;98.82
67249;SHT31;54162;54.300;18.592;2022-08-26T05:11:47;21.80;99.04
67249;SHT31;54162;54.300;18.592;2022-08-26T05:14:13;21.82;99.00
67249;SHT31;54162;54.300;18.592;2022-08-26T05:16:39;21.75;99.49
67249;SHT31;54162;54.300;18.592;2022-08-26T05:19:05;21.70;99.61
67249;SHT31;54162;54.300;18.592;2022-08-26T05:21:32;21.85;99.29
67249;SHT31;54162;54.300;18.592;2022-08-26T05:23:58;21.92;98.73
67249;SHT31;54162;54.300;18.592;2022-08-26T05:26:27;21.94;98.53
67249;SHT31;54162;54.300;18.592;2022-08-26T05:28:54;22.16;98.12
67249;SHT31;54162;54.300;18.592;2022-08-26T05:31:26;22.22;97.55
67249;SHT31;54162;54.300;18.592;2022-08-26T05:33:52;22.30;97.20
67249;SHT31;54162;54.300;18.592;2022-08-26T05:36:20;22.20;97.91
67249;SHT31;54162;54.300;18.592;2022-08-26T05:38:48;22.13;98.34
67249;SHT31;54162;54.300;18.592;2022-08-26T05:41:20;22.00;98.41
67249;SHT31;54162;54.300;18.592;2022-08-26T05:43:47;22.18;97.95
67249;SHT31;54162;54.300;18.592;2022-08-26T05:46:12;22.38;97.62
67249;SHT31;54162;54.300;18.592;2022-08-26T05:48:38;22.55;96.86
67249;SHT31;54162;54.300;18.592;2022-08-26T05:51:07;22.72;95.78
67249;SHT31;54162;54.300;18.592;2022-08-26T05:53:33;22.65;95.68
67249;SHT31;54162;54.300;18.592;2022-08-26T05:55:59;22.56;95.79
67249;SHT31;54162;54.300;18.592;2022-08-26T05:58:26;22.49;96.31
67249;SHT31;54162;54.300;18.592;2022-08-26T06:03:30;22.41;96.60
67249;SHT31;54162;54.300;18.592;2022-08-26T06:05:56;22.58;96.17
67249;SHT31;54162;54.300;18.592;2022-08-26T06:08:22;22.54;96.06
67249;SHT31;54162;54.300;18.592;2022-08-26T06:10:53;22.64;95.85
67249;SHT31;54162;54.300;18.592;2022-08-26T06:13:21;22.43;96.33
67249;SHT31;54162;54.300;18.592;2022-08-26T06:15:50;22.40;96.32
67249;SHT31;54162;54.300;18.592;2022-08-26T06:18:22;22.47;96.24
67249;SHT31;54162;54.300;18.592;2022-08-26T06:21:26;22.45;96.43
67249;SHT31;54162;54.300;18.592;2022-08-26T06:23:55;22.51;96.27
67249;SHT31;54162;54.300;18.592;2022-08-26T06:26:40;22.71;95.33
67249;SHT31;54162;54.300;18.592;2022-08-26T06:29:06;22.68;95.53
67249;SHT31;54162;54.300;18.592;2022-08-26T06:31:35;22.64;95.23
67249;SHT31;54162;54.300;18.592;2022-08-26T06:34:02;22.88;94.99
67249;SHT31;54162;54.300;18.592;2022-08-26T06:36:29;22.72;95.24
67249;SHT31;54162;54.300;18.592;2022-08-26T06:38:59;22.79;95.35
67249;SHT31;54162;54.300;18.592;2022-08-26T06:41:26;22.76;95.14
67249;SHT31;54162;54.300;18.592;2022-08-26T06:43:51;22.82;94.67
67249;SHT31;54162;54.300;18.592;2022-08-26T06:46:20;22.73;95.31
67249;SHT31;54162;54.300;18.592;2022-08-26T06:48:47;22.68;95.29
67249;SHT31;54162;54.300;18.592;2022-08-26T06:51:21;22.82;95.28
67249;SHT31;54162;54.300;18.592;2022-08-26T06:53:48;22.82;95.02
67249;SHT31;54162;54.300;18.592;2022-08-26T06:56:22;22.76;95.08
67249;SHT31;54162;54.300;18.592;2022-08-26T06:58:49;23.02;94.42
67249;SHT31;54162;54.300;18.592;2022-08-26T07:03:41;23.33;93.31
67249;SHT31;54162;54.300;18.592;2022-08-26T07:06:06;23.34;93.09
67249;SHT31;54162;54.300;18.592;2022-08-26T07:08:32;23.53;92.51
67249;SHT31;54162;54.300;18.592;2022-08-26T07:10:57;23.54;92.66
67249;SHT31;54162;54.300;18.592;2022-08-26T07:13:23;23.85;91.50
67249;SHT31;54162;54.300;18.592;2022-08-26T07:15:49;24.35;89.88
67249;SHT31;54162;54.300;18.592;2022-08-26T07:18:14;26.48;86.16
67249;SHT31;54162;54.300;18.592;2022-08-26T07:20:44;27.95;79.23
67249;SHT31;54162;54.300;18.592;2022-08-26T07:23:09;27.17;80.61
67249;SHT31;54162;54.300;18.592;2022-08-26T07:25:39;27.18;80.84
67249;SHT31;54162;54.300;18.592;2022-08-26T07:28:05;26.73;82.45
67249;SHT31;54162;54.300;18.592;2022-08-26T07:30:31;26.95;81.33
67249;SHT31;54162;54.300;18.592;2022-08-26T07:32:57;27.43;80.77
67249;SHT31;54162;54.300;18.592;2022-08-26T07:35:24;27.86;79.25
67249;SHT31;54162;54.300;18.592;2022-08-26T07:37:51;27.98;78.66
67249;SHT31;54162;54.300;18.592;2022-08-26T07:40:16;29.32;75.47
67249;SHT31;54162;54.300;18.592;2022-08-26T07:42:42;29.46;74.75
67249;SHT31;54162;54.300;18.592;2022-08-26T07:45:07;28.39;77.51
67249;SHT31;54162;54.300;18.592;2022-08-26T07:47:33;29.30;75.42
67249;SHT31;54162;54.300;18.592;2022-08-26T07:49:59;30.43;73.15
67249;SHT31;54162;54.300;18.592;2022-08-26T07:52:27;29.93;74.37
67249;SHT31;54162;54.300;18.592;2022-08-26T07:54:57;30.28;71.82
67249;SHT31;54162;54.300;18.592;2022-08-26T07:57:24;29.87;73.55
67249;SHT31;54162;54.300;18.592;2022-08-26T07:59:51;29.50;73.10
67249;SHT31;54162;54.300;18.592;2022-08-26T08:02:16;28.90;73.17
67249;SHT31;54162;54.300;18.592;2022-08-26T08:04:42;29.14;74.86
67249;SHT31;54162;54.300;18.592;2022-08-26T08:07:07;28.72;75.37
67249;SHT31;54162;54.300;18.592;2022-08-26T08:09:33;28.24;76.61
67249;SHT31;54162;54.300;18.592;2022-08-26T08:11:58;28.13;77.40
67249;SHT31;54162;54.300;18.592;2022-08-26T08:14:24;27.58;78.47
67249;SHT31;54162;54.300;18.592;2022-08-26T08:16:49;27.64;79.41
67249;SHT31;54162;54.300;18.592;2022-08-26T08:19:15;27.47;79.97
67249;SHT31;54162;54.300;18.592;2022-08-26T08:21:42;27.13;80.22
67249;SHT31;54162;54.300;18.592;2022-08-26T08:24:08;27.10;80.78
67249;SHT31;54162;54.300;18.592;2022-08-26T08:26:34;26.63;81.85
67249;SHT31;54162;54.300;18.592;2022-08-26T08:28:59;26.87;80.75
67249;SHT31;54162;54.300;18.592;2022-08-26T08:31:28;26.62;80.51
67249;SHT31;54162;54.300;18.592;2022-08-26T08:33:54;26.27;82.19
67249;SHT31;54162;54.300;18.592;2022-08-26T08:36:20;26.39;81.81
67249;SHT31;54162;54.300;18.592;2022-08-26T08:38:45;26.53;81.52
67249;SHT31;54162;54.300;18.592;2022-08-26T08:44:31;27.13;78.98
67249;SHT31;54162;54.300;18.592;2022-08-26T08:47:02;27.00;79.68
67249;SHT31;54162;54.300;18.592;2022-08-26T08:49:29;26.65;80.40
67249;SHT31;54162;54.300;18.592;2022-08-26T08:52:45;26.68;81.26
67249;SHT31;54162;54.300;18.592;2022-08-26T08:54:44;26.99;78.48
67249;SHT31;54162;54.300;18.592;2022-08-26T08:57:16;26.76;79.71
67249;SHT31;54162;54.300;18.592;2022-08-26T08:59:51;26.86;79.80
67249;SHT31;54162;54.300;18.592;2022-08-26T09:02:45;26.82;79.26
67249;SHT31;54162;54.300;18.592;2022-08-26T09:05:19;27.02;79.55
67249;SHT31;54162;54.300;18.592;2022-08-26T09:10:42;27.45;78.93
67249;SHT31;54162;54.300;18.592;2022-08-26T09:13:11;27.26;79.01
67249;SHT31;54162;54.300;18.592;2022-08-26T09:21:23;30.25;70.54
67249;SHT31;54162;54.300;18.592;2022-08-26T09:23:50;32.06;65.56
67249;SHT31;54162;54.300;18.592;2022-08-26T09:26:17;33.50;62.16
67249;SHT31;54162;54.300;18.592;2022-08-26T09:29:01;34.03;61.92
67249;SHT31;54162;54.300;18.592;2022-08-26T09:31:34;33.57;61.29
67249;SHT31;54162;54.300;18.592;2022-08-26T09:34:25;34.56;59.67
67249;SHT31;54162;54.300;18.592;2022-08-26T09:36:56;34.45;60.38
67249;SHT31;54162;54.300;18.592;2022-08-26T09:42:02;33.18;54.91
67249;SHT31;54162;54.300;18.592;2022-08-26T09:44:28;32.50;57.55
67249;SHT31;54162;54.300;18.592;2022-08-26T09:47:00;30.63;64.63
67249;SHT31;54162;54.300;18.592;2022-08-26T09:49:38;30.00;67.00
67249;SHT31;54162;54.300;18.592;2022-08-26T09:52:12;29.69;67.66
67249;SHT31;54162;54.300;18.592;2022-08-26T09:54:39;28.92;69.46
67249;SHT31;54162;54.300;18.592;2022-08-26T09:59:42;28.91;68.37
67249;SHT31;54162;54.300;18.592;2022-08-26T10:02:36;29.11;67.25
67249;SHT31;54162;54.300;18.592;2022-08-26T10:05:06;29.70;67.01
67249;SHT31;54162;54.300;18.592;2022-08-26T10:07:49;29.62;66.90
67249;SHT31;54162;54.300;18.592;2022-08-26T10:10:41;29.93;66.90
67249;SHT31;54162;54.300;18.592;2022-08-26T10:18:30;28.85;69.12
67249;SHT31;54162;54.300;18.592;2022-08-26T10:21:05;28.85;69.32
67249;SHT31;54162;54.300;18.592;2022-08-26T10:23:45;28.53;68.34
67249;SHT31;54162;54.300;18.592;2022-08-26T10:26:19;28.54;69.80
67249;SHT31;54162;54.300;18.592;2022-08-26T10:28:54;28.40;70.16
67249;SHT31;54162;54.300;18.592;2022-08-26T10:33:58;28.87;68.91
67249;SHT31;54162;54.300;18.592;2022-08-26T10:36:25;28.70;67.92
67249;SHT31;54162;54.300;18.592;2022-08-26T10:39:20;29.14;66.28
67249;SHT31;54162;54.300;18.592;2022-08-26T10:41:49;28.90;66.57
67249;SHT31;54162;54.300;18.592;2022-08-26T10:44:16;28.94;65.18
67249;SHT31;54162;54.300;18.592;2022-08-26T10:46:52;29.78;63.32
67249;SHT31;54162;54.300;18.592;2022-08-26T10:49:19;29.90;61.39
67249;SHT31;54162;54.300;18.592;2022-08-26T10:51:59;30.24;58.19
67249;SHT31;54162;54.300;18.592;2022-08-26T10:54:53;30.72;58.85
67249;SHT31;54162;54.300;18.592;2022-08-26T11:00:05;30.18;59.53
67249;SHT31;54162;54.300;18.592;2022-08-26T11:03:02;30.49;56.24
67249;SHT31;54162;54.300;18.592;2022-08-26T11:05:30;30.49;55.24
67249;SHT31;54162;54.300;18.592;2022-08-26T11:13:16;30.02;51.87
67249;SHT31;54162;54.300;18.592;2022-08-26T11:18:40;30.24;52.32
67249;SHT31;54162;54.300;18.592;2022-08-26T11:24:38;29.97;53.49
67249;SHT31;54162;54.300;18.592;2022-08-26T11:27:07;29.66;53.68
67249;SHT31;54162;54.300;18.592;2022-08-26T11:32:48;29.72;54.83
67249;SHT31;54162;54.300;18.592;2022-08-26T11:40:18;29.63;54.69
67249;SHT31;54162;54.300;18.592;2022-08-26T11:42:48;29.30;53.91
67249;SHT31;54162;54.300;18.592;2022-08-26T11:45:22;29.09;53.32
67249;SHT31;54162;54.300;18.592;2022-08-26T11:47:48;29.11;54.70
67249;SHT31;54162;54.300;18.592;2022-08-26T11:50:23;29.08;53.11
67249;SHT31;54162;54.300;18.592;2022-08-26T11:53:00;29.42;53.82
67249;SHT31;54162;54.300;18.592;2022-08-26T11:55:31;29.66;54.77
67249;SHT31;54162;54.300;18.592;2022-08-26T11:57:58;30.02;53.52
67249;SHT31;54162;54.300;18.592;2022-08-26T12:03:21;30.27;51.03
67249;SHT31;54162;54.300;18.592;2022-08-26T12:05:50;30.25;52.81
67249;SHT31;54162;54.300;18.592;2022-08-26T12:08:23;30.39;51.80
67249;SHT31;54162;54.300;18.592;2022-08-26T12:11:04;30.05;51.25
67249;SHT31;54162;54.300;18.592;2022-08-26T12:13:33;30.12;51.78
67249;SHT31;54162;54.300;18.592;2022-08-26T12:15:59;30.04;50.91
67249;SHT31;54162;54.300;18.592;2022-08-26T12:18:37;30.14;50.55
67249;SHT31;54162;54.300;18.592;2022-08-26T12:21:18;30.21;50.31
67249;SHT31;54162;54.300;18.592;2022-08-26T12:23:45;30.31;50.90
67249;SHT31;54162;54.300;18.592;2022-08-26T12:26:32;30.48;50.42
67249;SHT31;54162;54.300;18.592;2022-08-26T12:29:06;30.35;51.85
67249;SHT31;54162;54.300;18.592;2022-08-26T12:31:41;30.41;51.09
67249;SHT31;54162;54.300;18.592;2022-08-26T12:34:12;30.39;49.61
67249;SHT31;54162;54.300;18.592;2022-08-26T12:39:25;30.52;50.29
67249;SHT31;54162;54.300;18.592;2022-08-26T12:41:54;30.62;50.75
67249;SHT31;54162;54.300;18.592;2022-08-26T12:44:43;30.55;51.11
67249;SHT31;54162;54.300;18.592;2022-08-26T12:47:27;30.39;50.85
67249;SHT31;54162;54.300;18.592;2022-08-26T12:50:21;30.43;50.47
67249;SHT31;54162;54.300;18.592;2022-08-26T12:55:23;30.38;50.11
67249;SHT31;54162;54.300;18.592;2022-08-26T12:57:49;30.21;48.32
67249;SHT31;54162;54.300;18.592;2022-08-26T13:00:38;30.17;46.96
67249;SHT31;54162;54.300;18.592;2022-08-26T13:08:52;30.22;47.60
67249;SHT31;54162;54.300;18.592;2022-08-26T13:14:12;30.51;50.82
67249;SHT31;54162;54.300;18.592;2022-08-26T13:16:39;30.10;50.39
67249;SHT31;54162;54.300;18.592;2022-08-26T13:19:18;30.11;51.22
67249;SHT31;54162;54.300;18.592;2022-08-26T13:21:46;30.25;52.72
67249;SHT31;54162;54.300;18.592;2022-08-26T13:24:25;30.33;51.74
67249;SHT31;54162;54.300;18.592;2022-08-26T13:26:52;30.18;51.28
67249;SHT31;54162;54.300;18.592;2022-08-26T13:29:18;30.08;53.34
67249;SHT31;54162;54.300;18.592;2022-08-26T13:31:44;30.20;53.39
67249;SHT31;54162;54.300;18.592;2022-08-26T13:34:12;30.22;53.41
67249;SHT31;54162;54.300;18.592;2022-08-26T13:36:38;30.25;53.80
67249;SHT31;54162;54.300;18.592;2022-08-26T13:39:05;30.32;55.00
67249;SHT31;54162;54.300;18.592;2022-08-26T13:41:31;30.11;54.84
67249;SHT31;54162;54.300;18.592;2022-08-26T13:43:57;30.25;56.15
67249;SHT31;54162;54.300;18.592;2022-08-26T13:46:26;30.39;55.52
67249;SHT31;54162;54.300;18.592;2022-08-26T13:48:52;30.05;55.92
67249;SHT31;54162;54.300;18.592;2022-08-26T13:51:19;30.12;56.26
67249;SHT31;54162;54.300;18.592;2022-08-26T13:53:46;30.02;55.96
67249;SHT31;54162;54.300;18.592;2022-08-26T13:56:12;30.11;55.93
67249;SHT31;54162;54.300;18.592;2022-08-26T13:58:38;30.31;57.47
67249;SHT31;54162;54.300;18.592;2022-08-26T14:01:03;30.29;52.14
67249;SHT31;54162;54.300;18.592;2022-08-26T14:03:29;30.17;51.19
67249;SHT31;54162;54.300;18.592;2022-08-26T14:05:54;30.18;51.83
67249;SHT31;54162;54.300;18.592;2022-08-26T14:08:20;30.27;49.72
67249;SHT31;54162;54.300;18.592;2022-08-26T14:10:46;30.24;48.59
67249;SHT31;54162;54.300;18.592;2022-08-26T14:13:13;30.18;49.72
67249;SHT31;54162;54.300;18.592;2022-08-26T14:15:39;30.22;49.35
67249;SHT31;54162;54.300;18.592;2022-08-26T14:18:06;30.20;47.73
67249;SHT31;54162;54.300;18.592;2022-08-26T14:20:34;30.14;47.88
67249;SHT31;54162;54.300;18.592;2022-08-26T14:23:00;30.11;46.48
67249;SHT31;54162;54.300;18.592;2022-08-26T14:25:28;30.04;46.09
67249;SHT31;54162;54.300;18.592;2022-08-26T14:27:54;30.04;46.43
67249;SHT31;54162;54.300;18.592;2022-08-26T14:30:20;30.05;46.35
67249;SHT31;54162;54.300;18.592;2022-08-26T14:32:52;30.04;47.14
67249;SHT31;54162;54.300;18.592;2022-08-26T14:35:21;30.08;46.45
67249;SHT31;54162;54.300;18.592;2022-08-26T14:37:47;30.05;45.92
67249;SHT31;54162;54.300;18.592;2022-08-26T14:40:14;30.05;47.40
67249;SHT31;54162;54.300;18.592;2022-08-26T14:42:44;30.11;47.00
67249;SHT31;54162;54.300;18.592;2022-08-26T14:45:14;30.07;45.37
67249;SHT31;54162;54.300;18.592;2022-08-26T14:47:46;30.17;45.63
67249;SHT31;54162;54.300;18.592;2022-08-26T14:50:14;30.11;48.10
67249;SHT31;54162;54.300;18.592;2022-08-26T14:52:41;29.73;52.75
67249;SHT31;54162;54.300;18.592;2022-08-26T14:55:26;29.57;53.03
67249;SHT31;54162;54.300;18.592;2022-08-26T14:57:52;29.50;53.85
67249;SHT31;54162;54.300;18.592;2022-08-26T15:00:18;29.46;54.08
67249;SHT31;54162;54.300;18.592;2022-08-26T15:02:43;29.47;54.83
67249;SHT31;54162;54.300;18.592;2022-08-26T15:05:09;29.33;53.32
67249;SHT31;54162;54.300;18.592;2022-08-26T15:07:36;29.26;53.80
67249;SHT31;54162;54.300;18.592;2022-08-26T15:10:03;29.26;54.43
67249;SHT31;54162;54.300;18.592;2022-08-26T15:12:29;29.43;54.46
67249;SHT31;54162;54.300;18.592;2022-08-26T15:14:55;29.42;53.95
67249;SHT31;54162;54.300;18.592;2022-08-26T15:17:21;29.15;52.55
67249;SHT31;54162;54.300;18.592;2022-08-26T15:19:46;29.23;53.50
67249;SHT31;54162;54.300;18.592;2022-08-26T15:22:12;29.27;53.06
67249;SHT31;54162;54.300;18.592;2022-08-26T15:24:37;29.14;52.09
67249;SHT31;54162;54.300;18.592;2022-08-26T15:27:03;29.06;52.76
67249;SHT31;54162;54.300;18.592;2022-08-26T15:29:28;29.04;52.00
67249;SHT31;54162;54.300;18.592;2022-08-26T15:31:54;29.02;52.80
67249;SHT31;54162;54.300;18.592;2022-08-26T15:34:19;29.09;52.60
67249;SHT31;54162;54.300;18.592;2022-08-26T15:36:46;29.12;50.23
67249;SHT31;54162;54.300;18.592;2022-08-26T15:39:13;29.08;50.09
67249;SHT31;54162;54.300;18.592;2022-08-26T15:41:39;29.05;49.97
67249;SHT31;54162;54.300;18.592;2022-08-26T15:44:06;28.95;50.91
67249;SHT31;54162;54.300;18.592;2022-08-26T15:46:33;28.88;51.22
67249;SHT31;54162;54.300;18.592;2022-08-26T15:48:59;28.88;51.43
67249;SHT31;54162;54.300;18.592;2022-08-26T15:51:34;28.74;52.31
67249;SHT31;54162;54.300;18.592;2022-08-26T15:54:01;28.77;52.57
67249;SHT31;54162;54.300;18.592;2022-08-26T15:56:29;28.71;52.97
67249;SHT31;54162;54.300;18.592;2022-08-26T15:58:55;28.63;52.94
67249;SHT31;54162;54.300;18.592;2022-08-26T16:01:22;28.63;53.07
67249;SHT31;54162;54.300;18.592;2022-08-26T16:03:48;28.58;52.93
67249;SHT31;54162;54.300;18.592;2022-08-26T16:06:15;28.58;52.74
67249;SHT31;54162;54.300;18.592;2022-08-26T16:08:42;28.58;52.95
67249;SHT31;54162;54.300;18.592;2022-08-26T16:11:09;28.54;53.67
67249;SHT31;54162;54.300;18.592;2022-08-26T16:13:35;28.50;53.18
67249;SHT31;54162;54.300;18.592;2022-08-26T16:16:00;28.39;53.59
67249;SHT31;54162;54.300;18.592;2022-08-26T16:18:26;28.27;53.93
67249;SHT31;54162;54.300;18.592;2022-08-26T16:20:53;28.19;54.36
67249;SHT31;54162;54.300;18.592;2022-08-26T16:23:19;28.12;54.97
67249;SHT31;54162;54.300;18.592;2022-08-26T16:25:45;28.14;54.62
67249;SHT31;54162;54.300;18.592;2022-08-26T16:28:11;28.10;54.98
67249;SHT31;54162;54.300;18.592;2022-08-26T16:30:38;27.95;55.40
67249;SHT31;54162;54.300;18.592;2022-08-26T16:33:04;27.98;55.37
67249;SHT31;54162;54.300;18.592;2022-08-26T16:35:30;27.82;55.50
67249;SHT31;54162;54.300;18.592;2022-08-26T16:37:55;27.81;55.74